Home > Products > Valid Products > FWO

000
SHUS65 KGJT 312017
FWOGJT

DAILY FIRE WEATHER OBSERVATION
NATIONAL WEATHER SERVICE GRAND JUNCTION CO
212 PM MDT FRI OCT 31 2014

STATE OF THE WEATHER (W)               1
DRY BULB TEMPERATURE                   66   DEGREES FAHRENHEIT
RELATIVE HUMIDITY (RH)                 19   PERCENT
LIGHTNING ACTIVITY LEVEL
  (LAL - MIDNIGHT TO 2 PM)             1
WIND DIRECTION                         135  DEGREES (C IF CALM)
WIND SPEED                             7    MPH
MAX TEMP (2 PM - 2 PM)                 69   DEGREES FAHRENHEIT
MIN TEMP (2 PM - 2 PM)                 35   DEGREES FAHRENHEIT
MAX RH (2 PM - 2 PM)                   64   PERCENT
MIN RH (2 PM - 2 PM)                   15   PERCENT
PCPN DURATION                          0.0  HOURS
PCPN AMT (2 PM - 2 PM)                 0.0  INCHES
LAL (2 PM - 2 PM)                      1

$$

METAR KGJT 311953Z 13006KT 10SM CLR 19/M05 A3009 RMK AO2 SLP152
      T01891050





000
SHUS65 KGJT 302015
FWOGJT

DAILY FIRE WEATHER OBSERVATION
NATIONAL WEATHER SERVICE GRAND JUNCTION CO
212 PM MDT THU OCT 30 2014

STATE OF THE WEATHER (W)               0
DRY BULB TEMPERATURE                   63   DEGREES FAHRENHEIT
RELATIVE HUMIDITY (RH)                 18   PERCENT
LIGHTNING ACTIVITY LEVEL
  (LAL - MIDNIGHT TO 2 PM)             1
WIND DIRECTION                         C    DEGREES (C IF CALM)
WIND SPEED                             0    MPH
MAX TEMP (2 PM - 2 PM)                 63   DEGREES FAHRENHEIT
MIN TEMP (2 PM - 2 PM)                 33   DEGREES FAHRENHEIT
MAX RH (2 PM - 2 PM)                   56   PERCENT
MIN RH (2 PM - 2 PM)                   14   PERCENT
PCPN DURATION                          0.0  HOURS
PCPN AMT (2 PM - 2 PM)                 0.0  INCHES
LAL (2 PM - 2 PM)                      1

$$

METAR KGJT 301953Z VRB05KT 10SM CLR 17/M07 A3028 RMK AO2 SLP227
      T01721072





000
SHUS65 KGJT 292014
FWOGJT

DAILY FIRE WEATHER OBSERVATION
NATIONAL WEATHER SERVICE GRAND JUNCTION CO
212 PM MDT WED OCT 29 2014

STATE OF THE WEATHER (W)               0
DRY BULB TEMPERATURE                   59   DEGREES FAHRENHEIT
RELATIVE HUMIDITY (RH)                 15   PERCENT
LIGHTNING ACTIVITY LEVEL
  (LAL - MIDNIGHT TO 2 PM)             1
WIND DIRECTION                         C    DEGREES (C IF CALM)
WIND SPEED                             0    MPH
MAX TEMP (2 PM - 2 PM)                 61   DEGREES FAHRENHEIT
MIN TEMP (2 PM - 2 PM)                 29   DEGREES FAHRENHEIT
MAX RH (2 PM - 2 PM)                   56   PERCENT
MIN RH (2 PM - 2 PM)                   15   PERCENT
PCPN DURATION                          0.0  HOURS
PCPN AMT (2 PM - 2 PM)                 0.00 INCHES
LAL (2 PM - 2 PM)                      1

$$

METAR KGJT 291953Z VRB03KT 10SM CLR 15/M11 A3028 RMK AO2 SLP232
      T01501111





    US Dept of Commerce
    National Oceanic and Atmospheric Administration
    National Weather Service
    1325 East West Highway
    Silver Spring, MD 20910
    Page Author: NWS Internet Services Team
Disclaimer
Information Quality
Credits
Glossary
Privacy Policy
Freedom of Information Act (FOIA)
About Us
Career Opportunities